Time;durP1;ratioP1;P1;durP2;ratioP2;P2;SDS_P1;SDS_P2;PMS_P1;PMS_P2;Temp;Humidity;BMP_temperature;BMP_pressure;BME280_temperature;BME280_humidity;BME280_pressure;Samples;Min_cycle;Max_cycle;Signal;HPM_P1;HPM_P2
2021/07/06 00:00:15;;;;;;;15.18;12.45;;;25.10;99.20;;;;;;4880818;29;20076;-85
2021/07/06 00:02:41;;;;;;;13.88;11.88;;;25.00;99.20;;;;;;4897998;29;20477;-85
2021/07/06 00:05:08;;;;;;;16.65;13.38;;;25.00;99.20;;;;;;4865444;29;20055;-86
2021/07/06 00:07:34;;;;;;;13.93;12.10;;;25.00;99.20;;;;;;4897502;29;20055;-85
2021/07/06 00:10:00;;;;;;;15.10;13.38;;;25.00;99.20;;;;;;4881113;29;20467;-85
2021/07/06 00:12:26;;;;;;;15.70;13.80;;;25.00;99.20;;;;;;4865302;29;20028;-85
2021/07/06 00:14:53;;;;;;;16.48;13.50;;;25.10;99.30;;;;;;4898329;29;20076;-85
2021/07/06 00:17:19;;;;;;;15.57;13.45;;;25.00;99.20;;;;;;4880838;29;20089;-85
2021/07/06 00:19:46;;;;;;;15.55;13.60;;;25.00;99.30;;;;;;4880817;29;20542;-85
2021/07/06 00:22:12;;;;;;;16.23;13.95;;;25.00;99.30;;;;;;4865055;29;20037;-85
2021/07/06 00:24:37;;;;;;;17.10;14.23;;;25.00;99.30;;;;;;4865466;29;20411;-85
2021/07/06 00:27:04;;;;;;;16.73;14.25;;;25.00;99.30;;;;;;4880910;29;20048;-85
2021/07/06 00:29:30;;;;;;;16.77;13.73;;;25.00;99.30;;;;;;4881047;29;20040;-85
2021/07/06 00:31:56;;;;;;;16.63;14.18;;;25.00;99.30;;;;;;4880810;29;20047;-85
2021/07/06 00:34:21;;;;;;;16.20;13.82;;;25.00;99.30;;;;;;4867809;29;20037;-85
2021/07/06 00:36:47;;;;;;;16.48;14.38;;;25.00;99.30;;;;;;4883929;29;20048;-85
2021/07/06 00:39:14;;;;;;;17.25;13.68;;;25.00;99.30;;;;;;4868707;29;20037;-85
2021/07/06 00:41:40;;;;;;;16.95;13.90;;;25.00;99.30;;;;;;4901078;29;20056;-85
2021/07/06 00:44:12;;;;;;;17.55;14.43;;;25.00;99.60;;;;;;4884026;29;20480;-85
2021/07/06 00:46:38;;;;;;;16.58;14.38;;;25.00;99.40;;;;;;4884557;29;20045;-85
2021/07/06 00:49:04;;;;;;;18.08;14.90;;;25.00;99.30;;;;;;4868546;29;20036;-86
2021/07/06 00:51:29;;;;;;;16.45;14.20;;;25.00;99.30;;;;;;4868636;29;20498;-85
2021/07/06 00:53:55;;;;;;;16.40;14.63;;;25.00;99.30;;;;;;4900905;29;20040;-85
2021/07/06 00:56:21;;;;;;;16.42;14.07;;;25.00;99.40;;;;;;4900635;29;20036;-85
2021/07/06 00:58:48;;;;;;;15.50;13.50;;;25.00;99.50;;;;;;4884194;29;20028;-85
2021/07/06 01:01:14;;;;;;;15.65;13.48;;;25.00;99.40;;;;;;4868354;29;20033;-85
2021/07/06 01:03:39;;;;;;;16.42;13.88;;;25.00;99.40;;;;;;4884147;29;20069;-85
2021/07/06 01:06:05;;;;;;;14.52;12.85;;;25.00;99.40;;;;;;4901601;29;20033;-85
2021/07/06 01:08:31;;;;;;;14.63;12.68;;;25.00;99.40;;;;;;4885105;29;20072;-86
2021/07/06 01:10:58;;;;;;;16.85;13.98;;;25.00;99.40;;;;;;4892392;29;20056;-86
2021/07/06 01:13:24;;;;;;;15.27;13.35;;;25.00;99.40;;;;;;4888710;29;20041;-85
2021/07/06 01:15:50;;;;;;;15.35;13.50;;;25.00;99.40;;;;;;4884142;29;20032;-85
2021/07/06 01:18:18;;;;;;;15.38;12.85;;;25.00;99.40;;;;;;4868141;29;20444;-85
2021/07/06 01:20:49;;;;;;;16.15;13.73;;;25.00;99.40;;;;;;4868302;29;20080;-85
2021/07/06 01:23:19;;;;;;;16.42;14.20;;;25.00;99.40;;;;;;4899965;29;20036;-86
2021/07/06 01:25:44;;;;;;;16.63;13.85;;;25.00;99.40;;;;;;4883373;29;20032;-85
2021/07/06 01:28:10;;;;;;;15.95;13.70;;;25.00;99.40;;;;;;4883287;29;20036;-85
2021/07/06 01:30:37;;;;;;;15.82;13.77;;;25.00;99.40;;;;;;4900083;29;20464;-85
2021/07/06 01:33:04;;;;;;;15.93;13.52;;;25.00;99.40;;;;;;4867797;29;20106;-85
2021/07/06 01:35:30;;;;;;;16.02;13.48;;;25.00;99.40;;;;;;4867926;29;20055;-85
2021/07/06 01:37:58;;;;;;;15.75;13.20;;;25.00;99.40;;;;;;4864749;29;20113;-85
2021/07/06 01:40:26;;;;;;;14.70;12.75;;;25.00;99.40;;;;;;4881521;29;20112;-85
2021/07/06 01:42:53;;;;;;;15.77;13.40;;;25.00;99.50;;;;;;4865098;29;20044;-85
2021/07/06 01:45:21;;;;;;;16.02;13.55;;;25.00;99.40;;;;;;4880201;29;20029;-85
2021/07/06 01:47:49;;;;;;;16.02;13.77;;;25.00;99.50;;;;;;4880055;29;20041;-85
2021/07/06 01:50:18;;;;;;;15.07;12.68;;;25.00;99.50;;;;;;4880532;29;20033;-87
2021/07/06 01:52:46;;;;;;;15.65;13.90;;;25.00;99.50;;;;;;4880354;29;20029;-85
2021/07/06 01:55:14;;;;;;;16.02;13.45;;;25.00;99.50;;;;;;4881355;29;20062;-85
2021/07/06 01:57:41;;;;;;;14.38;12.65;;;25.00;99.50;;;;;;4879849;29;20428;-85
2021/07/06 02:00:09;;;;;;;14.43;12.68;;;25.00;99.50;;;;;;4880007;29;20028;-85
2021/07/06 02:02:35;;;;;;;15.75;13.15;;;25.00;99.50;;;;;;4879657;29;20068;-85
2021/07/06 02:05:14;;;;;;;14.27;12.77;;;25.00;99.50;;;;;;4881110;29;20060;-85
2021/07/06 02:07:41;;;;;;;14.77;12.00;;;25.00;99.50;;;;;;4879335;29;20037;-85
2021/07/06 02:10:08;;;;;;;15.95;12.95;;;25.00;99.50;;;;;;4881148;29;20533;-84
2021/07/06 02:12:33;;;;;;;14.35;12.13;;;25.00;99.50;;;;;;4864016;29;20045;-84
2021/07/06 02:15:00;;;;;;;14.02;12.07;;;25.00;99.60;;;;;;4881379;29;20037;-84
2021/07/06 02:17:26;;;;;;;13.73;11.20;;;25.00;99.60;;;;;;4864094;29;20033;-85
2021/07/06 02:19:52;;;;;;;13.23;11.18;;;25.00;99.60;;;;;;4879713;29;20068;-84
2021/07/06 02:22:18;;;;;;;12.73;11.27;;;25.00;99.60;;;;;;4879378;29;20033;-84
2021/07/06 02:24:45;;;;;;;12.52;10.88;;;25.00;99.60;;;;;;4863845;29;20485;-84
2021/07/06 02:27:10;;;;;;;13.20;11.00;;;25.00;99.60;;;;;;4879356;29;20044;-84
2021/07/06 02:29:36;;;;;;;13.70;10.85;;;25.00;99.60;;;;;;4878682;29;20037;-84
2021/07/06 02:32:02;;;;;;;13.10;11.40;;;25.00;99.60;;;;;;4848598;29;20145;-84
2021/07/06 02:34:27;;;;;;;11.90;10.52;;;25.00;99.60;;;;;;4878977;29;20500;-85
2021/07/06 02:36:53;;;;;;;12.40;11.10;;;25.00;99.60;;;;;;4864909;29;20738;-85
2021/07/06 02:39:19;;;;;;;13.10;10.95;;;25.00;99.60;;;;;;4882396;29;20406;-84
2021/07/06 02:41:44;;;;;;;13.18;10.98;;;25.00;99.60;;;;;;4866530;29;20463;-85
2021/07/06 02:44:10;;;;;;;12.23;10.18;;;25.00;99.60;;;;;;4898955;29;20459;-84
2021/07/06 02:46:36;;;;;;;11.85;10.40;;;25.00;99.70;;;;;;4881798;29;20068;-85
2021/07/06 02:49:01;;;;;;;11.20;9.98;;;25.00;99.70;;;;;;4866477;29;20115;-85
2021/07/06 02:51:27;;;;;;;10.55;9.38;;;25.00;99.70;;;;;;4866228;29;20063;-85
2021/07/06 02:53:52;;;;;;;10.52;9.18;;;25.00;99.70;;;;;;4898774;29;20467;-84
2021/07/06 02:56:18;;;;;;;10.45;9.23;;;25.00;99.70;;;;;;4881898;29;20033;-85
2021/07/06 02:58:44;;;;;;;11.30;9.80;;;25.00;99.70;;;;;;4866658;29;20872;-84
2021/07/06 03:01:10;;;;;;;9.98;8.88;;;25.00;99.70;;;;;;4886353;29;20428;-84
2021/07/06 03:03:35;;;;;;;9.63;8.57;;;25.00;99.70;;;;;;4872488;29;20041;-84
2021/07/06 03:06:01;;;;;;;11.07;9.43;;;25.00;99.70;;;;;;4898867;29;20033;-84
2021/07/06 03:08:30;;;;;;;9.80;8.63;;;25.00;99.70;;;;;;4881948;29;20041;-85
2021/07/06 03:10:56;;;;;;;8.90;7.97;;;25.00;99.70;;;;;;4882499;29;20083;-84
2021/07/06 03:13:21;;;;;;;10.50;8.77;;;25.00;99.70;;;;;;4866524;29;20037;-84
2021/07/06 03:15:47;;;;;;;10.30;8.40;;;25.00;99.80;;;;;;4898283;29;20483;-85
2021/07/06 03:18:12;;;;;;;8.77;7.75;;;25.00;99.80;;;;;;4866667;29;20036;-84
2021/07/06 03:20:38;;;;;;;10.07;8.32;;;25.00;99.70;;;;;;4881339;29;20522;-84
2021/07/06 03:23:04;;;;;;;8.55;7.45;;;25.00;99.80;;;;;;4898640;29;20115;-84
2021/07/06 03:25:32;;;;;;;8.15;7.35;;;25.00;99.80;;;;;;4881623;29;20515;-85
2021/07/06 03:27:59;;;;;;;9.30;7.63;;;25.00;99.80;;;;;;4866423;29;20048;-84
2021/07/06 03:30:28;;;;;;;8.57;7.20;;;25.00;99.80;;;;;;4866542;29;20395;-84
2021/07/06 03:32:55;;;;;;;8.25;7.13;;;25.00;99.80;;;;;;4881208;29;20021;-84
2021/07/06 03:35:21;;;;;;;7.95;7.15;;;25.00;99.80;;;;;;4866052;29;20040;-84
2021/07/06 03:37:48;;;;;;;8.73;7.53;;;25.00;99.80;;;;;;4897561;29;20056;-84
2021/07/06 03:40:14;;;;;;;7.13;6.40;;;25.00;99.80;;;;;;4881630;29;20361;-86
2021/07/06 03:42:40;;;;;;;8.43;6.95;;;25.00;99.80;;;;;;4897777;29;20033;-86
2021/07/06 03:45:09;;;;;;;8.10;7.03;;;25.00;99.80;;;;;;4882160;29;20033;-84
2021/07/06 03:47:35;;;;;;;8.25;6.82;;;25.00;99.80;;;;;;4897621;29;20100;-85
2021/07/06 03:50:00;;;;;;;6.97;6.28;;;25.00;99.80;;;;;;4898353;29;20037;-84
2021/07/06 03:52:26;;;;;;;7.13;6.43;;;24.90;99.80;;;;;;4865808;29;20033;-85
2021/07/06 03:54:52;;;;;;;7.18;6.47;;;25.00;99.80;;;;;;4865485;29;20139;-85
2021/07/06 03:57:39;;;;;;;7.63;6.45;;;25.00;99.80;;;;;;4881206;29;20088;-85
2021/07/06 04:00:10;;;;;;;7.22;5.95;;;24.90;99.80;;;;;;4870562;29;20368;-85
2021/07/06 04:02:36;;;;;;;7.38;6.18;;;25.00;99.90;;;;;;4897615;29;20035;-86
2021/07/06 04:05:07;;;;;;;6.32;5.57;;;24.90;99.80;;;;;;4897656;29;20037;-85
2021/07/06 04:07:33;;;;;;;5.93;5.32;;;25.00;99.90;;;;;;4880733;29;20065;-85
2021/07/06 04:09:59;;;;;;;6.43;5.78;;;24.90;99.90;;;;;;4901734;29;20033;-85
2021/07/06 04:12:24;;;;;;;6.68;5.45;;;24.90;99.90;;;;;;4869387;29;20120;-85
2021/07/06 04:14:50;;;;;;;6.25;5.63;;;25.00;99.90;;;;;;4884596;29;20035;-85
2021/07/06 04:17:16;;;;;;;5.90;5.32;;;24.90;99.90;;;;;;4884587;29;20172;-85
2021/07/06 04:19:42;;;;;;;5.60;5.03;;;24.90;99.90;;;;;;4868980;29;20040;-85
2021/07/06 04:22:07;;;;;;;6.40;5.38;;;24.90;99.90;;;;;;4869452;29;20043;-85
2021/07/06 04:24:33;;;;;;;5.85;5.15;;;25.00;99.90;;;;;;4869209;29;20494;-84
2021/07/06 04:27:00;;;;;;;6.13;5.45;;;24.90;99.90;;;;;;4901196;29;20192;-85
2021/07/06 04:29:26;;;;;;;5.95;5.35;;;25.00;99.90;;;;;;4869022;29;20029;-85
2021/07/06 04:31:55;;;;;;;6.72;5.60;;;25.00;99.90;;;;;;4883910;29;20029;-85
2021/07/06 04:34:22;;;;;;;6.65;5.53;;;25.00;99.90;;;;;;4901539;29;20107;-84
2021/07/06 04:36:47;;;;;;;6.35;5.57;;;25.00;99.90;;;;;;4868621;29;20388;-85
2021/07/06 04:39:13;;;;;;;6.80;5.68;;;25.00;99.90;;;;;;4884964;29;20123;-84
2021/07/06 04:41:39;;;;;;;6.13;5.53;;;25.00;99.90;;;;;;4901029;29;20440;-85
2021/07/06 04:44:05;;;;;;;5.95;5.10;;;24.90;99.90;;;;;;4868620;29;20040;-84
2021/07/06 04:46:30;;;;;;;5.65;5.05;;;25.00;99.90;;;;;;4884191;29;20036;-84
2021/07/06 04:48:58;;;;;;;6.50;5.10;;;24.90;99.90;;;;;;4869162;29;20029;-85
2021/07/06 04:51:24;;;;;;;7.03;5.28;;;25.00;99.90;;;;;;4894748;29;20037;-84
2021/07/06 04:53:50;;;;;;;5.55;4.95;;;25.00;99.90;;;;;;4889637;29;20033;-84
2021/07/06 04:56:15;;;;;;;5.95;5.15;;;25.00;99.90;;;;;;4884160;29;20040;-84
2021/07/06 04:58:41;;;;;;;5.78;5.18;;;25.00;99.90;;;;;;4868588;29;20100;-87
2021/07/06 05:01:08;;;;;;;5.40;4.90;;;25.00;99.90;;;;;;4884079;29;20360;-85
2021/07/06 05:03:37;;;;;;;5.85;5.00;;;25.00;99.90;;;;;;4885091;29;20045;-84
2021/07/06 05:06:03;;;;;;;4.70;4.30;;;25.00;99.90;;;;;;4887092;29;20040;-84
2021/07/06 05:08:29;;;;;;;5.45;4.65;;;25.00;99.90;;;;;;4883668;29;20032;-85
2021/07/06 05:10:56;;;;;;;5.20;4.40;;;25.00;99.90;;;;;;4900130;29;20037;-86
2021/07/06 05:13:24;;;;;;;5.82;4.85;;;25.00;99.90;;;;;;4884012;29;20043;-85
2021/07/06 05:15:51;;;;;;;4.80;4.30;;;25.00;99.90;;;;;;4869026;29;20126;-85
2021/07/06 05:18:16;;;;;;;4.78;4.25;;;25.00;99.90;;;;;;4900607;29;20029;-85
2021/07/06 05:20:42;;;;;;;5.50;4.60;;;25.00;99.90;;;;;;4852771;29;20035;-85
2021/07/06 05:23:08;;;;;;;5.40;4.75;;;25.00;99.90;;;;;;4883482;29;20071;-85
2021/07/06 05:25:34;;;;;;;4.28;3.90;;;25.00;99.90;;;;;;4883904;29;20134;-85
2021/07/06 05:27:59;;;;;;;5.15;4.50;;;25.00;99.90;;;;;;4899829;29;20044;-85
2021/07/06 05:30:25;;;;;;;4.75;4.13;;;25.00;99.90;;;;;;4883624;29;20091;-85
2021/07/06 05:32:51;;;;;;;5.05;4.07;;;25.00;99.90;;;;;;4867763;29;20048;-85
2021/07/06 05:35:17;;;;;;;4.32;3.70;;;25.00;99.90;;;;;;4868063;29;20037;-85
2021/07/06 05:37:42;;;;;;;4.28;3.88;;;25.00;99.90;;;;;;4900626;29;20056;-84
2021/07/06 05:40:10;;;;;;;4.63;4.13;;;25.00;99.90;;;;;;4883282;29;20044;-85
2021/07/06 05:42:37;;;;;;;4.53;4.00;;;25.00;99.90;;;;;;4900009;29;20116;-85
2021/07/06 05:45:04;;;;;;;4.20;3.80;;;25.00;99.90;;;;;;4900295;29;20400;-84
2021/07/06 05:47:34;;;;;;;4.50;3.75;;;25.00;99.90;;;;;;4867645;29;20038;-85
2021/07/06 05:49:59;;;;;;;4.72;4.10;;;25.00;99.90;;;;;;4867887;29;20037;-85
2021/07/06 05:52:27;;;;;;;3.85;3.42;;;25.00;99.90;;;;;;4883027;29;20040;-84
2021/07/06 05:54:53;;;;;;;3.85;3.42;;;25.00;99.90;;;;;;4883012;29;20112;-85
2021/07/06 05:57:18;;;;;;;4.82;4.32;;;25.00;99.90;;;;;;4899867;29;20064;-84
2021/07/06 05:59:44;;;;;;;4.82;4.10;;;25.00;99.90;;;;;;4899510;29;20032;-84
2021/07/06 06:02:10;;;;;;;4.65;4.10;;;25.00;99.90;;;;;;4867290;29;20535;-84
2021/07/06 06:04:35;;;;;;;4.60;4.15;;;25.00;99.90;;;;;;4882807;29;20161;-84
2021/07/06 06:07:01;;;;;;;4.82;4.32;;;25.00;99.90;;;;;;4882321;29;20065;-85
2021/07/06 06:09:27;;;;;;;4.22;3.83;;;25.00;99.90;;;;;;4899341;29;20040;-84
2021/07/06 06:11:53;;;;;;;5.60;4.72;;;25.00;99.90;;;;;;4882387;29;20116;-85
2021/07/06 06:14:19;;;;;;;5.05;4.28;;;25.00;99.90;;;;;;4882525;29;20120;-85
2021/07/06 06:16:45;;;;;;;5.13;4.05;;;25.00;99.90;;;;;;4882821;29;20467;-85
2021/07/06 06:19:11;;;;;;;4.85;4.35;;;25.00;99.90;;;;;;4882160;29;20048;-84
2021/07/06 06:21:36;;;;;;;5.63;4.88;;;25.00;99.90;;;;;;4899695;29;20043;-87
2021/07/06 06:24:02;;;;;;;4.45;4.00;;;25.00;99.90;;;;;;4899544;29;20037;-88
2021/07/06 06:26:27;;;;;;;4.20;3.80;;;25.00;99.90;;;;;;4882910;29;20103;-89
2021/07/06 06:28:53;;;;;;;4.90;4.40;;;25.00;99.90;;;;;;4882973;29;20037;-88
2021/07/06 06:31:19;;;;;;;5.70;4.63;;;25.00;99.90;;;;;;4883008;29;20033;-88
2021/07/06 06:33:45;;;;;;;4.82;4.22;;;25.00;99.90;;;;;;4871070;29;20045;-87
2021/07/06 06:36:11;;;;;;;5.75;4.55;;;25.00;99.90;;;;;;4901847;29;20024;-87
2021/07/06 06:38:37;;;;;;;4.60;4.18;;;25.00;99.90;;;;;;4864244;29;20057;-86
2021/07/06 06:41:03;;;;;;;5.75;4.13;;;25.10;99.90;;;;;;4870638;29;20041;-87
2021/07/06 06:43:29;;;;;;;5.65;4.28;;;25.10;99.90;;;;;;4885591;29;20041;-87
2021/07/06 06:45:54;;;;;;;4.68;3.50;;;25.20;99.90;;;;;;4880737;29;20433;-88
2021/07/06 06:48:20;;;;;;;5.03;3.40;;;25.20;99.90;;;;;;4881194;29;20037;-88
2021/07/06 06:50:46;;;;;;;4.10;3.08;;;25.20;99.80;;;;;;4879526;29;20045;-87
2021/07/06 06:53:11;;;;;;;3.63;2.80;;;25.20;99.60;;;;;;4863983;29;20097;-88
2021/07/06 06:55:37;;;;;;;3.90;2.85;;;25.30;99.50;;;;;;4849004;29;20124;-86
2021/07/06 06:58:03;;;;;;;3.25;2.45;;;25.30;99.40;;;;;;4863480;29;20037;-86
2021/07/06 07:00:30;;;;;;;3.38;2.60;;;25.20;99.20;;;;;;4879230;29;20033;-86
2021/07/06 07:02:56;;;;;;;3.60;2.45;;;25.20;99.10;;;;;;4863159;29;20055;-86
2021/07/06 07:05:22;;;;;;;3.53;2.65;;;25.20;99.10;;;;;;4862570;29;20475;-86
2021/07/06 07:07:48;;;;;;;3.70;2.25;;;25.20;99.00;;;;;;4878785;29;20448;-86
2021/07/06 07:10:14;;;;;;;3.38;2.88;;;25.20;99.00;;;;;;4862919;29;20037;-85
2021/07/06 07:12:40;;;;;;;4.43;3.30;;;25.20;98.90;;;;;;4863703;29;20036;-86
2021/07/06 07:15:09;;;;;;;4.43;3.47;;;25.20;98.90;;;;;;4879698;29;20069;-86
2021/07/06 07:17:35;;;;;;;4.72;3.67;;;25.20;98.90;;;;;;4863012;29;20073;-86
2021/07/06 07:20:02;;;;;;;5.40;4.13;;;25.20;98.90;;;;;;4879769;29;20460;-86
2021/07/06 07:22:28;;;;;;;5.80;4.40;;;25.20;98.90;;;;;;4863181;29;20037;-87
2021/07/06 07:24:53;;;;;;;5.38;4.05;;;25.10;98.80;;;;;;4878464;29;20392;-86
2021/07/06 07:27:19;;;;;;;5.57;4.80;;;25.10;98.80;;;;;;4847203;29;20048;-86
2021/07/06 07:29:45;;;;;;;4.80;4.20;;;25.10;98.80;;;;;;4879309;29;20061;-86
2021/07/06 07:32:10;;;;;;;4.50;3.70;;;25.10;98.80;;;;;;4878229;29;20436;-87
2021/07/06 07:34:36;;;;;;;4.75;3.95;;;25.10;98.80;;;;;;4878352;29;20468;-86
2021/07/06 07:37:03;;;;;;;4.85;4.28;;;25.10;98.80;;;;;;4880571;29;20139;-88
2021/07/06 07:39:29;;;;;;;5.50;4.80;;;25.10;98.70;;;;;;4898105;29;20033;-85
2021/07/06 07:41:54;;;;;;;4.43;3.97;;;25.10;98.70;;;;;;4866126;29;20033;-86
2021/07/06 07:44:20;;;;;;;4.95;4.30;;;25.10;98.70;;;;;;4898444;29;20432;-86
2021/07/06 07:46:45;;;;;;;5.40;4.40;;;25.10;98.70;;;;;;4866031;29;20471;-86
2021/07/06 07:49:11;;;;;;;4.80;4.30;;;25.10;98.70;;;;;;4881362;29;20032;-87
2021/07/06 07:51:37;;;;;;;5.65;4.80;;;25.10;98.70;;;;;;4866010;29;20029;-87
2021/07/06 07:54:02;;;;;;;5.82;4.97;;;25.10;98.70;;;;;;4881627;29;20032;-86
2021/07/06 07:56:28;;;;;;;5.95;5.15;;;25.10;98.70;;;;;;4850295;29;20084;-86
2021/07/06 07:58:54;;;;;;;5.93;4.72;;;25.10;98.70;;;;;;4881667;29;20066;-87
2021/07/06 08:01:20;;;;;;;6.65;5.43;;;25.10;98.60;;;;;;4881223;29;20399;-86
2021/07/06 08:03:46;;;;;;;6.13;5.00;;;25.10;98.60;;;;;;4866847;29;20428;-86
2021/07/06 08:06:11;;;;;;;7.00;5.80;;;25.10;98.60;;;;;;4881830;29;20124;-85
2021/07/06 08:08:37;;;;;;;7.10;6.15;;;25.10;98.60;;;;;;4893174;29;20041;-86
2021/07/06 08:11:03;;;;;;;7.25;6.40;;;25.10;98.80;;;;;;4902458;29;20395;-86
2021/07/06 08:13:32;;;;;;;7.22;6.03;;;25.10;98.50;;;;;;4898699;29;20486;-86
2021/07/06 08:15:59;;;;;;;6.45;5.80;;;25.10;98.50;;;;;;4898336;29;20033;-86
2021/07/06 08:18:25;;;;;;;7.55;6.43;;;25.20;98.50;;;;;;4865521;29;20197;-86
2021/07/06 08:20:51;;;;;;;7.90;6.57;;;25.10;98.50;;;;;;4866017;29;20130;-86
2021/07/06 08:23:16;;;;;;;7.80;6.47;;;25.10;98.50;;;;;;4897937;29;20033;-86
2021/07/06 08:25:43;;;;;;;6.55;5.90;;;25.10;98.40;;;;;;4881808;29;20077;-86
2021/07/06 08:28:09;;;;;;;7.47;6.28;;;25.20;98.40;;;;;;4898869;29;20041;-88
2021/07/06 08:30:34;;;;;;;8.02;6.53;;;25.20;98.40;;;;;;4901007;29;20365;-86
2021/07/06 08:33:00;;;;;;;7.88;6.50;;;25.20;98.40;;;;;;4882175;29;20040;-86
2021/07/06 08:35:26;;;;;;;8.55;6.80;;;25.20;98.60;;;;;;4898092;29;20044;-86
2021/07/06 08:37:52;;;;;;;7.38;6.45;;;25.20;98.40;;;;;;4877847;29;20520;-87
2021/07/06 08:40:18;;;;;;;7.40;6.63;;;25.20;98.30;;;;;;4879131;29;20037;-86
2021/07/06 08:42:44;;;;;;;6.43;5.55;;;25.20;98.30;;;;;;4877979;29;20085;-86
2021/07/06 08:45:11;;;;;;;7.30;6.00;;;25.20;98.30;;;;;;4879012;29;20044;-87
2021/07/06 08:47:38;;;;;;;6.80;6.07;;;25.20;98.20;;;;;;4877850;29;20041;-86
2021/07/06 08:50:07;;;;;;;7.18;6.13;;;25.20;98.10;;;;;;4877743;29;20044;-86
2021/07/06 08:52:37;;;;;;;6.35;5.57;;;25.20;98.10;;;;;;4877881;29;20437;-86
2021/07/06 08:55:03;;;;;;;7.13;6.32;;;25.20;98.00;;;;;;4879828;29;20033;-86
2021/07/06 08:57:28;;;;;;;5.95;5.32;;;25.20;98.00;;;;;;4880652;29;20398;-86
2021/07/06 08:59:54;;;;;;;6.65;5.60;;;25.20;98.00;;;;;;4881040;29;20029;-86
2021/07/06 09:02:21;;;;;;;6.63;5.97;;;25.20;98.00;;;;;;4881812;29;20085;-87
2021/07/06 09:04:52;;;;;;;6.25;5.40;;;25.20;97.90;;;;;;4882055;29;20033;-87
2021/07/06 09:07:21;;;;;;;6.63;5.35;;;25.20;97.90;;;;;;4880599;29;20388;-87
2021/07/06 09:09:49;;;;;;;6.20;5.60;;;25.20;97.90;;;;;;4881928;29;20064;-86
2021/07/06 09:12:16;;;;;;;5.93;5.28;;;25.20;97.90;;;;;;4880581;29;20140;-88
2021/07/06 09:14:46;;;;;;;6.28;5.22;;;25.20;97.80;;;;;;4865455;29;20065;-86
2021/07/06 09:17:17;;;;;;;5.43;4.90;;;25.20;97.80;;;;;;4881283;29;20033;-87
2021/07/06 09:19:45;;;;;;;6.18;5.55;;;25.20;97.70;;;;;;4880212;29;20036;-87
2021/07/06 09:22:14;;;;;;;5.93;5.20;;;25.20;97.70;;;;;;4881764;29;20077;-86
2021/07/06 09:24:42;;;;;;;5.45;4.90;;;25.20;97.60;;;;;;4881295;29;20037;-86
2021/07/06 09:27:26;;;;;;;6.90;5.85;;;25.20;97.50;;;;;;4881578;29;20029;-87
2021/07/06 09:30:16;;;;;;;5.90;4.90;;;25.10;97.50;;;;;;4881820;29;20033;-86
2021/07/06 09:32:53;;;;;;;5.28;4.78;;;25.10;97.50;;;;;;4880240;29;20029;-86
2021/07/06 09:35:28;;;;;;;6.15;4.90;;;25.20;97.50;;;;;;4864903;29;20092;-88
2021/07/06 09:37:59;;;;;;;7.05;5.47;;;25.20;97.40;;;;;;4879965;29;20101;-86
2021/07/06 09:40:28;;;;;;;5.13;4.57;;;25.10;97.40;;;;;;4880050;29;20494;-86
2021/07/06 09:43:13;;;;;;;5.38;4.50;;;25.10;97.30;;;;;;4880278;29;20029;-86
2021/07/06 09:45:39;;;;;;;4.82;4.18;;;25.20;97.30;;;;;;4879895;29;20148;-86
2021/07/06 09:48:06;;;;;;;5.60;4.85;;;25.10;97.20;;;;;;4864721;29;20097;-86
2021/07/06 09:50:32;;;;;;;4.57;4.10;;;25.20;97.20;;;;;;4879590;29;20154;-86
2021/07/06 09:52:57;;;;;;;5.63;4.60;;;25.10;97.10;;;;;;4864553;29;20516;-86
2021/07/06 09:55:30;;;;;;;4.97;4.35;;;25.10;97.00;;;;;;4881179;29;20391;-88
2021/07/06 09:57:56;;;;;;;5.80;4.78;;;25.10;97.00;;;;;;4881647;29;20033;-87
2021/07/06 10:00:22;;;;;;;5.18;4.65;;;25.10;96.90;;;;;;4879870;29;20044;-87
2021/07/06 10:02:48;;;;;;;5.88;5.03;;;25.10;96.90;;;;;;4880263;29;20048;-86
2021/07/06 10:05:20;;;;;;;5.30;4.80;;;25.10;96.90;;;;;;4864185;29;20076;-86
2021/07/06 10:07:46;;;;;;;6.05;5.13;;;25.10;96.90;;;;;;4879657;29;20116;-87
2021/07/06 10:10:13;;;;;;;5.47;4.57;;;25.10;96.90;;;;;;4881823;29;20532;-86
2021/07/06 10:12:44;;;;;;;5.03;4.35;;;25.10;96.80;;;;;;4881436;29;20030;-86
2021/07/06 10:15:11;;;;;;;4.68;4.13;;;25.10;96.80;;;;;;4880645;29;20033;-86
2021/07/06 10:17:39;;;;;;;3.83;3.53;;;25.10;96.80;;;;;;4880790;29;20117;-87
2021/07/06 10:20:07;;;;;;;4.38;3.95;;;25.10;96.70;;;;;;4884380;29;20060;-86
2021/07/06 10:22:33;;;;;;;4.13;3.70;;;25.10;96.70;;;;;;4896873;29;20093;-85
2021/07/06 10:25:05;;;;;;;3.05;2.75;;;25.10;96.70;;;;;;4887333;29;20063;-86
2021/07/06 10:27:35;;;;;;;4.18;3.38;;;25.10;96.70;;;;;;4893564;29;20464;-86
2021/07/06 10:30:19;;;;;;;3.60;2.88;;;25.10;96.60;;;;;;4885049;29;20041;-86
2021/07/06 10:32:51;;;;;;;3.35;2.83;;;25.10;96.60;;;;;;4885483;29;20072;-87
2021/07/06 10:35:37;;;;;;;2.42;2.22;;;25.10;96.80;;;;;;4881065;29;20025;-86
2021/07/06 10:38:38;;;;;;;2.60;2.40;;;25.10;96.60;;;;;;4878856;29;20095;-86
2021/07/06 10:41:06;;;;;;;2.47;2.28;;;25.10;96.60;;;;;;4880887;29;20025;-86
2021/07/06 10:43:34;;;;;;;2.65;2.40;;;25.10;96.60;;;;;;4848590;29;20486;-86
2021/07/06 10:46:15;;;;;;;2.35;2.15;;;25.10;96.60;;;;;;4880554;29;20030;-85
2021/07/06 10:48:45;;;;;;;1.95;1.77;;;25.10;96.60;;;;;;4879950;29;20479;-86
2021/07/06 10:51:39;;;;;;;2.45;2.00;;;25.10;96.60;;;;;;4880451;29;20037;-86
2021/07/06 10:54:21;;;;;;;1.52;1.42;;;25.10;96.60;;;;;;4879317;29;20120;-86
2021/07/06 10:56:51;;;;;;;1.83;1.58;;;25.10;96.60;;;;;;4880188;29;20037;-86
2021/07/06 10:59:19;;;;;;;1.90;1.52;;;25.10;96.60;;;;;;4880727;29;20029;-86
2021/07/06 11:01:57;;;;;;;1.90;1.63;;;25.10;96.50;;;;;;4880011;29;20033;-85
2021/07/06 11:04:47;;;;;;;1.77;1.60;;;25.10;96.50;;;;;;4880065;29;20073;-86
2021/07/06 11:07:37;;;;;;;1.95;1.30;;;25.10;96.40;;;;;;4878858;29;20480;-85
2021/07/06 11:10:05;;;;;;;1.10;1.00;;;25.10;96.40;;;;;;4878599;29;20043;-86
2021/07/06 11:12:43;;;;;;;1.45;1.17;;;25.00;96.40;;;;;;4863465;29;20069;-86
2021/07/06 11:15:12;;;;;;;1.30;1.10;;;25.10;96.40;;;;;;4880307;29;20025;-86
2021/07/06 11:17:46;;;;;;;1.17;1.00;;;25.10;96.40;;;;;;4879528;29;20234;-86
2021/07/06 11:20:29;;;;;;;1.10;1.00;;;25.10;96.40;;;;;;4879056;29;20036;-86
2021/07/06 11:22:56;;;;;;;1.33;1.08;;;25.10;96.30;;;;;;4879481;29;20437;-86
2021/07/06 11:25:36;;;;;;;1.33;0.95;;;25.00;96.30;;;;;;4879122;29;20033;-86
2021/07/06 11:28:01;;;;;;;0.88;0.80;;;25.00;96.20;;;;;;4879904;29;20033;-86
2021/07/06 11:30:35;;;;;;;0.80;0.80;;;25.00;96.30;;;;;;4883036;29;20041;-86
2021/07/06 11:33:10;;;;;;;1.30;1.05;;;25.00;96.30;;;;;;4881087;29;20061;-86
2021/07/06 11:35:43;;;;;;;;;;;25.00;96.30;;;;;;4880515;29;20029;-87
2021/07/06 11:38:15;;;;;;;0.90;0.75;;;25.00;96.20;;;;;;4891224;29;20370;-86
2021/07/06 11:40:45;;;;;;;0.60;0.60;;;25.00;96.20;;;;;;4898080;29;20029;-86
2021/07/06 11:43:15;;;;;;;0.82;0.70;;;25.00;96.20;;;;;;4897869;29;20055;-86
2021/07/06 11:45:41;;;;;;;0.73;0.73;;;25.00;96.20;;;;;;4897883;29;20475;-86
2021/07/06 11:48:13;;;;;;;0.70;0.70;;;25.00;96.20;;;;;;4881724;29;20032;-86
2021/07/06 11:50:41;;;;;;;0.73;0.60;;;25.00;96.10;;;;;;4898073;29;20048;-87
2021/07/06 11:53:08;;;;;;;1.13;0.70;;;25.00;96.10;;;;;;4897984;29;20471;-85
2021/07/06 11:55:36;;;;;;;0.65;0.65;;;25.00;96.10;;;;;;4898551;29;20029;-86
2021/07/06 11:58:03;;;;;;;0.68;0.68;;;25.00;96.00;;;;;;4898318;29;20048;-86
2021/07/06 12:00:31;;;;;;;1.27;0.98;;;25.00;96.00;;;;;;4898669;29;20032;-87
2021/07/06 12:03:23;;;;;;;1.15;0.88;;;25.00;96.00;;;;;;4897872;29;20064;-86
2021/07/06 12:05:52;;;;;;;1.70;1.40;;;25.00;95.90;;;;;;4894233;29;20037;-87
2021/07/06 12:08:22;;;;;;;1.50;1.40;;;25.00;95.90;;;;;;4898200;29;20151;-86
2021/07/06 12:11:18;;;;;;;2.28;2.08;;;24.90;95.80;;;;;;4900353;29;20041;-85
2021/07/06 12:13:43;;;;;;;2.60;2.10;;;25.00;95.90;;;;;;4895627;29;20467;-87
2021/07/06 12:16:20;;;;;;;2.35;2.15;;;25.00;95.90;;;;;;4880946;29;20088;-86
2021/07/06 12:18:50;;;;;;;2.55;2.35;;;24.90;95.90;;;;;;4897736;29;20076;-86
2021/07/06 12:21:23;;;;;;;3.90;3.05;;;24.90;95.90;;;;;;4896735;29;20443;-87
2021/07/06 12:23:49;;;;;;;3.25;2.60;;;24.90;95.90;;;;;;4897702;29;20364;-87
2021/07/06 12:26:14;;;;;;;4.20;3.28;;;25.00;96.00;;;;;;4898147;29;20067;-86
2021/07/06 12:28:41;;;;;;;3.70;3.17;;;25.00;96.00;;;;;;4880970;29;20436;-89
2021/07/06 12:31:30;;;;;;;3.65;3.33;;;24.90;96.00;;;;;;4884969;29;20037;-86
2021/07/06 12:34:07;;;;;;;4.50;3.80;;;25.00;96.10;;;;;;4884265;29;20032;-86
2021/07/06 12:36:45;;;;;;;3.75;3.40;;;25.00;96.10;;;;;;4887254;29;20093;-86
2021/07/06 12:39:21;;;;;;;4.25;3.85;;;25.00;96.10;;;;;;4902202;29;20044;-87
2021/07/06 12:41:48;;;;;;;4.18;3.78;;;25.00;96.10;;;;;;4901205;29;20033;-86
2021/07/06 12:44:17;;;;;;;5.22;4.28;;;25.00;96.10;;;;;;4884266;29;20035;-87
2021/07/06 12:46:43;;;;;;;4.82;3.97;;;25.00;96.10;;;;;;4899671;29;20071;-88